Des Lacs, ND

10:09 PM CDT on September 19, 2014 (GMT -0500)
Dakota Park South Minot | Change Station
CLOSE
Current Station
Personal Weather Station
Location: Minot, ND
Elevation: 1750 ft
Nearby Weather Stations

Elev 1750 ft 48.20 °N, 101.31 °W | Updated 10 seconds ago

Clear
Clear
59.9 °F
Feels Like 59.9 °F
N
3.8
Wind Variable Wind from West
Gusts 5.4 mph

Today
High -- | Low -- °F
--% Chance of Precip.
Yesterday
High -- | Low -- °F
Precip. -- in
7:28 AM 7:50 PM
Waning Crescent, 15% visible
Pressure 29.75 in
Visibility 10.0 miles
Clouds Clear
Dew Point 54 °F
Humidity 80%
Rainfall 0.06 in
Snow Depth Not available.
UV 0.0 out of 12
Pollen 5.20 out of 12
Air Quality Not available.
Flu Activity Not available.
METAR KMOT 200254Z 27010KT 10SM CLR 17/12 A2976 RMK AO2 SLP075 T01720117 52023

More Conditions Fewer Conditions

Pressure 29.75 in
Visibility 10.0 miles
Clouds Clear
Dew Point 54 °F
Humidity 80%
Rainfall 0.06 in
Snow Depth Not available.
UV 0.0 out of 12
Pollen 5.20 out of 12
Air Quality Not available.
Flu Activity Not available.
METAR KMOT 200254Z 27010KT 10SM CLR 17/12 A2976 RMK AO2 SLP075 T01720117 52023

More Conditions Fewer Conditions

10-Day Weather Forecast

Almanac

Astronomy

Sep. 19, 2014 Rise Set
Actual Time 7:28 AM CDT 7:50 PM CDT
Civil Twilight 6:57 AM CDT 8:21 PM CDT
Nautical Twilight 6:20 AM CDT 8:58 PM CDT
Astronomical Twilight 5:42 AM CDT 9:36 PM CDT
Moon 3:00 AM CDT (9/19) 5:34 PM CDT (9/19)
Length of Visible Light 13h 23m
Length of Day
12h 21m
Tomorrow will be 3m 29s shorter.
Waning Crescent, 15% of the Moon is Illuminated
Today
Waning Crescent
Sep 24
New
Oct 1
First Quarter
Oct 8
Full
Oct 15
Last Quarter

Today's Extremes

State Highs State Lows

Community

WunderPhotos

Upload Photos

1,754,768 photos uploaded!

WunderBlogs® & News

Nearby

Snow Depth

Station Depth Elevation
No new snow has been reported.

Earthquake Activity

City Distance Mag. Time & Date
No recent earthquake activity has been reported nearby.
Minimum magnitude displayed is 2.5.

Coastal Water Temperatures

Place Temperature
No Stations Reporting

Nearby Weather Stations